Time;durP1;ratioP1;P1;durP2;ratioP2;P2;SDS_P1;SDS_P2;PMS_P1;PMS_P2;Temp;Humidity;BMP_temperature;BMP_pressure;BME280_temperature;BME280_humidity;BME280_pressure;Samples;Min_cycle;Max_cycle;Signal;HPM_P1;HPM_P2
2023/12/19 00:00:27;;;;;;;;;59.75;48.75;;;;;7.69;100.00;102367.16;4897080;29;11685;-65
2023/12/19 00:02:55;;;;;;;;;62.00;47.00;;;;;7.73;100.00;102367.72;4904698;29;11696;-65
2023/12/19 00:05:21;;;;;;;;;54.75;44.50;;;;;7.77;100.00;102350.38;4915807;29;11651;-65
2023/12/19 00:07:48;;;;;;;;;60.00;45.50;;;;;7.79;100.00;102337.69;4894037;29;11710;-64
2023/12/19 00:10:15;;;;;;;;;59.50;47.25;;;;;7.69;100.00;102338.50;4896155;29;11609;-65
2023/12/19 00:12:41;;;;;;;;;59.00;46.00;;;;;7.70;100.00;102344.75;4897858;29;11686;-64
2023/12/19 00:15:09;;;;;;;;;57.25;43.50;;;;;7.72;100.00;102337.41;4878288;29;11707;-66
2023/12/19 00:17:36;;;;;;;;;45.25;40.50;;;;;7.77;100.00;102340.50;4877932;29;11705;-65
2023/12/19 00:20:02;;;;;;;;;50.00;42.50;;;;;7.66;100.00;102333.44;4895079;29;11649;-65
2023/12/19 00:22:29;;;;;;;;;57.25;46.00;;;;;7.60;100.00;102325.09;4879587;29;11732;-65
2023/12/19 00:24:55;;;;;;;;;53.50;41.50;;;;;7.64;100.00;102321.16;4895466;29;11678;-65
2023/12/19 00:27:22;;;;;;;;;43.00;38.50;;;;;7.66;100.00;102329.94;4879958;29;11691;-65
2023/12/19 00:29:48;;;;;;;;;59.50;45.00;;;;;7.68;100.00;102326.09;4897569;29;11641;-65
2023/12/19 00:32:15;;;;;;;;;65.25;46.00;;;;;7.64;100.00;102313.13;4897317;29;11623;-65
2023/12/19 00:34:42;;;;;;;;;62.00;44.00;;;;;7.67;100.00;102307.50;4897955;29;11642;-63
2023/12/19 00:37:08;;;;;;;;;59.00;47.50;;;;;7.63;100.00;102311.44;4896344;29;11701;-65
2023/12/19 00:39:38;;;;;;;;;53.75;41.75;;;;;7.67;100.00;102311.03;4896164;29;12393;-64
2023/12/19 00:42:04;;;;;;;;;50.00;41.50;;;;;7.71;100.00;102311.59;4896264;29;11630;-64
2023/12/19 00:44:30;;;;;;;;;49.50;41.75;;;;;7.72;100.00;102317.78;4879569;29;11651;-65
2023/12/19 00:46:57;;;;;;;;;41.00;31.00;;;;;7.75;100.00;102306.81;4878795;29;11664;-65
2023/12/19 00:49:23;;;;;;;;;51.25;44.75;;;;;7.67;100.00;102299.47;4877384;29;11664;-65
2023/12/19 00:51:50;;;;;;;;;41.75;38.00;;;;;7.72;100.00;102304.41;4895935;29;11596;-64
2023/12/19 00:54:17;;;;;;;;;56.75;43.75;;;;;7.72;100.00;102291.00;4895923;29;11623;-64
2023/12/19 00:56:43;;;;;;;;;51.75;40.50;;;;;7.74;100.00;102289.88;4876054;29;11716;-64
2023/12/19 00:59:11;;;;;;;;;48.50;37.75;;;;;7.77;100.00;102288.72;4881319;29;11627;-64
2023/12/19 01:01:37;;;;;;;;;56.00;43.00;;;;;7.76;100.00;102287.88;4912864;29;11604;-65
2023/12/19 01:04:04;;;;;;;;;40.00;38.50;;;;;7.69;100.00;102284.06;4903860;29;11596;-65
2023/12/19 01:06:31;;;;;;;;;51.75;43.75;;;;;7.72;100.00;102286.47;4896052;29;11612;-65
2023/12/19 01:08:58;;;;;;;;;39.00;31.50;;;;;7.74;100.00;102284.50;4897766;29;11640;-65
2023/12/19 01:11:24;;;;;;;;;52.00;45.00;;;;;7.78;100.00;102277.88;4895826;29;11633;-65
2023/12/19 01:13:51;;;;;;;;;59.50;45.50;;;;;7.73;100.00;102272.06;4895412;29;11690;-64
2023/12/19 01:16:18;;;;;;;;;52.25;41.25;;;;;7.73;100.00;102274.75;4902583;29;11617;-65
2023/12/19 01:18:44;;;;;;;;;45.25;38.75;;;;;7.77;100.00;102268.13;4897639;29;11697;-65
2023/12/19 01:21:11;;;;;;;;;50.25;43.00;;;;;7.74;100.00;102256.84;4913050;29;12383;-65
2023/12/19 01:23:38;;;;;;;;;49.25;41.25;;;;;7.76;100.00;102252.19;4914329;29;11649;-65
2023/12/19 01:26:05;;;;;;;;;39.75;36.25;;;;;7.74;100.00;102255.03;4898492;29;11662;-66
2023/12/19 01:28:41;;;;;;;;;56.50;44.75;;;;;7.73;100.00;102247.94;4895322;29;11695;-65
2023/12/19 01:31:07;;;;;;;;;51.25;42.25;;;;;7.70;100.00;102245.56;4864867;29;11733;-66
2023/12/19 01:33:34;;;;;;;;;47.50;41.75;;;;;7.68;100.00;102244.84;4914035;29;11614;-64
2023/12/19 01:36:02;;;;;;;;;44.50;40.75;;;;;7.73;100.00;102247.94;4909523;29;11621;-65
2023/12/19 01:38:29;;;;;;;;;45.50;38.75;;;;;7.69;100.00;102231.31;4895436;29;11618;-64
2023/12/19 01:40:56;;;;;;;;;46.75;39.50;;;;;7.73;100.00;102229.19;4898758;29;11660;-64
2023/12/19 01:43:22;;;;;;;;;48.75;38.25;;;;;7.73;100.00;102231.88;4914261;29;11640;-65
2023/12/19 01:45:51;;;;;;;;;42.50;38.25;;;;;7.74;100.00;102230.91;4897770;29;11611;-65
2023/12/19 01:48:19;;;;;;;;;53.50;38.25;;;;;7.80;100.00;102230.31;4905811;29;11767;-65
2023/12/19 01:50:47;;;;;;;;;50.50;40.50;;;;;7.84;100.00;102236.25;4895146;29;11638;-64
2023/12/19 01:53:15;;;;;;;;;42.50;39.25;;;;;7.77;100.00;102227.91;4894966;29;12362;-65
2023/12/19 01:55:42;;;;;;;;;51.75;41.75;;;;;7.76;100.00;102228.91;4891862;29;11606;-66
2023/12/19 01:58:10;;;;;;;;;50.75;39.50;;;;;7.78;100.00;102228.75;4913737;29;11620;-66
2023/12/19 02:00:37;;;;;;;;;42.50;37.50;;;;;7.75;100.00;102237.94;4913682;29;11650;-65
2023/12/19 02:03:05;;;;;;;;;50.50;40.50;;;;;7.76;100.00;102228.06;4911139;29;11604;-65
2023/12/19 02:05:36;;;;;;;;;46.50;39.50;;;;;7.79;100.00;102225.13;4911329;29;11670;-65
2023/12/19 02:08:04;;;;;;;;;43.75;35.75;;;;;7.82;100.00;102220.31;4912629;29;11645;-66
2023/12/19 02:10:31;;;;;;;;;53.00;42.00;;;;;7.83;100.00;102216.66;4911853;29;12442;-64
2023/12/19 02:12:59;;;;;;;;;50.25;42.75;;;;;7.83;100.00;102208.59;4890477;29;11623;-64
2023/12/19 02:15:25;;;;;;;;;49.25;40.50;;;;;7.84;100.00;102202.25;4899119;29;11613;-65
2023/12/19 02:17:52;;;;;;;;;48.25;41.00;;;;;7.88;100.00;102194.75;4899317;29;11631;-64
2023/12/19 02:20:19;;;;;;;;;61.25;46.25;;;;;7.82;100.00;102190.84;4901456;29;12351;-65
2023/12/19 02:22:52;;;;;;;;;52.00;43.25;;;;;7.86;100.00;102170.78;4898716;29;11683;-64
2023/12/19 02:25:20;;;;;;;;;43.50;39.00;;;;;7.95;100.00;102173.59;4898830;29;11708;-65
2023/12/19 02:27:47;;;;;;;;;52.50;45.00;;;;;7.96;100.00;102170.75;4908935;29;11644;-65
2023/12/19 02:30:13;;;;;;;;;49.00;42.00;;;;;7.95;100.00;102169.06;4915971;29;12517;-65
2023/12/19 02:32:41;;;;;;;;;53.00;41.25;;;;;7.96;100.00;102168.06;4917108;29;11624;-66
2023/12/19 02:35:08;;;;;;;;;58.50;43.00;;;;;7.95;100.00;102166.41;4917333;29;11627;-65
2023/12/19 02:37:35;;;;;;;;;53.00;44.00;;;;;7.94;100.00;102154.00;4884211;29;11627;-63
2023/12/19 02:40:01;;;;;;;;;59.50;46.00;;;;;7.90;100.00;102140.03;4881674;29;12343;-64
2023/12/19 02:42:28;;;;;;;;;59.00;44.25;;;;;7.92;100.00;102151.44;4881480;29;11615;-66
2023/12/19 02:44:54;;;;;;;;;54.75;44.25;;;;;7.92;100.00;102145.22;4898388;29;11590;-65
2023/12/19 02:47:21;;;;;;;;;44.50;38.00;;;;;7.99;100.00;102148.19;4898524;29;11607;-63
2023/12/19 02:49:47;;;;;;;;;60.50;45.25;;;;;7.89;100.00;102129.41;4898022;29;11615;-64
2023/12/19 02:52:14;;;;;;;;;45.50;39.75;;;;;7.96;100.00;102125.19;4886311;29;11740;-64
2023/12/19 02:54:41;;;;;;;;;45.75;41.75;;;;;7.98;100.00;102127.69;4900769;29;11624;-65
2023/12/19 02:57:07;;;;;;;;;60.25;44.25;;;;;7.93;100.00;102128.13;4898211;29;11613;-65
2023/12/19 02:59:34;;;;;;;;;45.25;40.25;;;;;7.97;100.00;102113.44;4896917;29;11750;-64
2023/12/19 03:02:00;;;;;;;;;44.25;40.25;;;;;8.00;100.00;102118.53;4898188;29;11619;-64
2023/12/19 03:04:26;;;;;;;;;59.00;45.50;;;;;7.91;100.00;102114.91;4897861;29;11767;-65
2023/12/19 03:06:53;;;;;;;;;48.25;41.00;;;;;7.95;100.00;102115.44;4903992;29;11672;-65
2023/12/19 03:09:20;;;;;;;;;52.00;42.75;;;;;7.90;100.00;102102.50;4899640;29;11627;-64
2023/12/19 03:12:01;;;;;;;;;47.25;41.25;;;;;7.98;100.00;102116.97;4916670;29;12437;-65
2023/12/19 03:14:28;;;;;;;;;42.25;38.25;;;;;7.97;100.00;102102.72;4862558;29;11642;-64
2023/12/19 03:16:54;;;;;;;;;47.50;39.00;;;;;8.02;100.00;102091.56;4878034;29;11639;-64
2023/12/19 03:19:21;;;;;;;;;51.25;40.50;;;;;7.98;100.00;102096.41;4879124;29;11662;-64
2023/12/19 03:21:47;;;;;;;;;53.00;42.75;;;;;7.92;100.00;102089.75;4879112;29;11627;-65
2023/12/19 03:24:14;;;;;;;;;45.00;39.75;;;;;7.98;100.00;102076.75;4885740;29;11760;-64
2023/12/19 03:26:40;;;;;;;;;44.50;38.50;;;;;8.04;100.00;102071.66;4897688;29;12319;-64
2023/12/19 03:29:06;;;;;;;;;47.50;42.25;;;;;7.98;100.00;102066.03;4908526;29;11678;-65
2023/12/19 03:31:33;;;;;;;;;44.75;40.50;;;;;7.97;100.00;102070.56;4916431;29;12347;-65
2023/12/19 03:34:02;;;;;;;;;49.00;40.25;;;;;7.95;100.00;102061.81;4916309;29;11635;-64
2023/12/19 03:36:29;;;;;;;;;40.75;36.75;;;;;8.02;100.00;102056.69;4916420;29;12349;-65
2023/12/19 03:38:56;;;;;;;;;44.75;38.25;;;;;7.95;100.00;102051.09;4911539;29;11736;-64
2023/12/19 03:41:22;;;;;;;;;50.25;40.50;;;;;7.95;100.00;102047.59;4999648;23;11683;-71
2023/12/19 03:43:49;;;;;;;;;29.00;28.00;;;;;8.01;100.00;102055.84;4969848;28;12402;-71
2023/12/19 03:46:15;;;;;;;;;57.50;44.50;;;;;8.01;100.00;102049.66;4961266;28;11541;-71
2023/12/19 03:48:44;;;;;;;;;44.75;38.25;;;;;8.00;100.00;102035.41;4954249;28;11567;-70
2023/12/19 03:51:12;;;;;;;;;42.50;40.75;;;;;8.07;100.00;102035.66;4954419;28;11575;-71
2023/12/19 03:53:38;;;;;;;;;48.00;38.75;;;;;8.06;100.00;102025.91;4954070;28;11535;-68
2023/12/19 03:56:06;;;;;;;;;48.00;37.50;;;;;8.11;100.00;102029.03;4973320;28;11656;-71
2023/12/19 03:58:33;;;;;;;;;43.50;38.25;;;;;8.11;100.00;102027.19;4934917;29;11596;-71
2023/12/19 04:01:00;;;;;;;;;52.25;37.75;;;;;8.11;100.00;102018.28;4934946;29;11720;-71
2023/12/19 04:03:26;;;;;;;;;37.00;32.75;;;;;8.12;100.00;102015.44;4933626;29;11705;-70
2023/12/19 04:05:53;;;;;;;;;45.00;38.00;;;;;8.05;100.00;102019.72;4934859;29;11573;-71
2023/12/19 04:08:19;;;;;;;;;49.50;37.00;;;;;8.10;100.00;102013.91;4933713;29;11642;-72
2023/12/19 04:10:46;;;;;;;;;42.25;38.75;;;;;8.07;100.00;102011.53;4934627;29;11647;-70
2023/12/19 04:13:12;;;;;;;;;48.25;36.00;;;;;8.07;100.00;101998.97;4935979;28;11585;-69
2023/12/19 04:15:39;;;;;;;;;44.75;38.00;;;;;8.00;100.00;101997.88;4949484;29;11613;-71
2023/12/19 04:18:06;;;;;;;;;48.00;42.25;;;;;8.02;100.00;101992.34;4934735;29;11726;-71
2023/12/19 04:20:32;;;;;;;;;41.75;35.75;;;;;8.04;100.00;102006.47;4934663;29;11682;-72
2023/12/19 04:22:58;;;;;;;;;36.25;33.00;;;;;7.99;100.00;101998.03;4934460;29;12490;-69
2023/12/19 04:25:25;;;;;;;;;39.25;38.25;;;;;7.96;100.00;102003.69;4934413;29;11565;-70
2023/12/19 04:27:51;;;;;;;;;42.25;34.00;;;;;8.03;100.00;102004.78;4935713;28;11556;-70
2023/12/19 04:30:18;;;;;;;;;37.25;30.75;;;;;8.07;100.00;102003.50;4950972;28;11346;-71
2023/12/19 04:32:44;;;;;;;;;33.50;27.75;;;;;8.10;100.00;102005.84;4953346;28;11158;-71
2023/12/19 04:35:11;;;;;;;;;30.50;29.50;;;;;8.14;100.00;102001.88;4953417;28;11232;-70
2023/12/19 04:37:38;;;;;;;;;36.50;33.25;;;;;8.09;100.00;101998.81;4984401;28;11089;-70
2023/12/19 04:40:05;;;;;;;;;29.50;25.25;;;;;8.10;100.00;101995.13;4951830;28;11286;-70
2023/12/19 04:42:32;;;;;;;;;24.00;23.25;;;;;8.06;100.00;101997.28;4953185;28;11240;-70
2023/12/19 04:44:58;;;;;;;;;24.25;23.00;;;;;8.01;100.00;101974.56;4943617;28;10989;-70
2023/12/19 04:47:25;;;;;;;;;22.25;18.50;;;;;8.05;100.00;101978.66;4953209;28;11604;-71
2023/12/19 04:49:51;;;;;;;;;25.00;23.25;;;;;8.07;100.00;101968.63;4951562;28;10918;-70
2023/12/19 04:52:17;;;;;;;;;26.00;23.25;;;;;8.03;100.00;101964.56;4983879;28;11068;-71
2023/12/19 04:54:45;;;;;;;;;28.00;22.75;;;;;8.05;100.00;101962.56;4953131;28;11050;-70
2023/12/19 04:57:13;;;;;;;;;21.50;19.25;;;;;8.07;100.00;101952.53;4947688;29;11096;-71
2023/12/19 04:59:39;;;;;;;;;20.25;20.00;;;;;8.13;100.00;101952.75;4933992;29;11108;-71
2023/12/19 05:02:06;;;;;;;;;20.25;20.00;;;;;8.09;100.00;101959.41;4936158;29;10978;-68
2023/12/19 05:04:33;;;;;;;;;22.25;18.00;;;;;8.13;100.00;101946.56;4933810;28;10771;-68
2023/12/19 05:06:59;;;;;;;;;20.00;17.50;;;;;8.15;100.00;101945.44;4933676;29;11675;-70
2023/12/19 05:09:25;;;;;;;;;24.50;24.25;;;;;8.09;100.00;101943.34;4933808;29;10862;-71
2023/12/19 05:11:52;;;;;;;;;23.50;22.50;;;;;8.10;100.00;101938.81;4948343;29;11063;-70
2023/12/19 05:14:19;;;;;;;;;23.50;20.00;;;;;8.12;100.00;101943.03;4932391;29;11019;-70
2023/12/19 05:16:45;;;;;;;;;24.25;19.00;;;;;8.19;100.00;101940.59;4935503;28;10923;-70
2023/12/19 05:19:12;;;;;;;;;27.00;24.00;;;;;8.23;100.00;101943.84;4934093;29;11090;-71
2023/12/19 05:21:38;;;;;;;;;24.50;23.25;;;;;8.21;100.00;101937.75;4948228;29;10997;-70
2023/12/19 05:24:06;;;;;;;;;24.75;22.75;;;;;8.23;100.00;101950.03;4941023;28;10919;-71
2023/12/19 05:26:32;;;;;;;;;24.50;20.50;;;;;8.29;100.00;101944.03;4952750;28;10924;-70
2023/12/19 05:28:59;;;;;;;;;24.50;23.00;;;;;8.25;100.00;101931.94;4945667;28;10839;-71
2023/12/19 05:31:25;;;;;;;;;24.25;22.25;;;;;8.19;100.00;101924.50;4964205;28;11053;-70
2023/12/19 05:33:52;;;;;;;;;21.00;19.50;;;;;8.24;100.00;101932.94;4935938;29;11015;-70
2023/12/19 05:36:19;;;;;;;;;23.50;21.00;;;;;8.24;100.00;101932.09;4933316;29;10864;-70
2023/12/19 05:38:45;;;;;;;;;19.50;17.25;;;;;8.28;100.00;101915.53;4950187;28;10907;-70
2023/12/19 05:41:14;;;;;;;;;24.25;21.75;;;;;8.31;100.00;101912.56;4983222;28;10868;-70
2023/12/19 05:43:41;;;;;;;;;21.50;19.75;;;;;8.32;100.00;101908.88;4952058;28;10832;-69
2023/12/19 05:46:08;;;;;;;;;25.50;20.00;;;;;8.27;100.00;101910.34;4951973;28;11550;-70
2023/12/19 05:48:34;;;;;;;;;21.50;20.00;;;;;8.26;100.00;101903.28;4951960;28;11501;-70
2023/12/19 05:51:03;;;;;;;;;18.25;18.00;;;;;8.30;100.00;101901.97;4941377;29;10721;-69
2023/12/19 05:53:29;;;;;;;;;25.50;22.00;;;;;8.31;100.00;101895.63;4951299;28;10753;-70
2023/12/19 05:55:56;;;;;;;;;19.50;18.25;;;;;8.29;100.00;101892.25;4966982;28;10934;-71
2023/12/19 05:58:22;;;;;;;;;22.50;21.00;;;;;8.28;100.00;101885.19;4952466;28;10802;-70
2023/12/19 06:00:49;;;;;;;;;24.25;22.50;;;;;8.23;100.00;101879.47;4948330;28;10794;-71
2023/12/19 06:03:16;;;;;;;;;20.50;16.25;;;;;8.26;100.00;101882.66;4945471;28;10861;-69
2023/12/19 06:05:42;;;;;;;;;22.25;19.75;;;;;8.27;100.00;101875.47;4938761;29;11385;-70
2023/12/19 06:08:09;;;;;;;;;19.75;15.00;;;;;8.30;100.00;101877.81;4937219;29;10999;-70
2023/12/19 06:10:35;;;;;;;;;21.50;21.50;;;;;8.35;100.00;101875.53;4976049;28;10906;-70
2023/12/19 06:13:02;;;;;;;;;19.25;19.25;;;;;8.32;100.00;101876.69;4932670;29;10828;-70
2023/12/19 06:15:29;;;;;;;;;16.50;15.75;;;;;8.32;100.00;101871.31;4932969;29;11011;-69
2023/12/19 06:17:55;;;;;;;;;21.75;19.00;;;;;8.29;100.00;101870.78;4932944;29;11033;-69
2023/12/19 06:20:42;;;;;;;;;20.75;18.75;;;;;8.33;100.00;101874.84;4952233;29;11017;-71
2023/12/19 06:23:58;;;;;;;;;22.25;19.25;;;;;8.36;100.00;101870.00;4964937;28;10811;-71
2023/12/19 06:27:07;;;;;;;;;21.75;20.00;;;;;8.34;100.00;101858.56;4952188;29;11467;-69
2023/12/19 06:30:11;;;;;;;;;23.50;21.00;;;;;8.34;100.00;101857.75;4948444;29;11688;-68
2023/12/19 06:33:20;;;;;;;;;20.50;17.25;;;;;8.44;100.00;101860.38;4967313;28;10970;-69
2023/12/19 06:36:31;;;;;;;;;20.00;17.00;;;;;8.49;100.00;101853.53;4959003;28;10955;-68
2023/12/19 06:39:42;;;;;;;;;23.75;21.25;;;;;8.50;100.00;101862.44;4951836;29;10887;-68
2023/12/19 06:42:47;;;;;;;;;20.25;20.25;;;;;8.45;100.00;101854.00;4945504;28;11003;-69
2023/12/19 06:45:50;;;;;;;;;25.25;22.25;;;;;8.53;100.00;101840.66;4953972;28;10812;-71
2023/12/19 06:49:00;;;;;;;;;25.00;20.75;;;;;8.52;100.00;101841.66;4961547;28;10863;-71
2023/12/19 06:52:10;;;;;;;;;29.50;29.00;;;;;8.48;100.00;101843.81;4959438;28;10787;-70
2023/12/19 06:55:19;;;;;;;;;34.25;29.50;;;;;8.51;100.00;101845.34;4945443;29;11097;-70
2023/12/19 06:58:31;;;;;;;;;30.50;24.00;;;;;8.56;100.00;101837.66;4952843;28;11089;-71
2023/12/19 07:01:40;;;;;;;;;25.25;21.00;;;;;8.57;100.00;101842.03;4964350;28;11009;-71
2023/12/19 07:04:49;;;;;;;;;21.00;19.25;;;;;8.63;100.00;101846.78;4976148;28;10999;-71
2023/12/19 07:07:58;;;;;;;;;25.50;25.00;;;;;8.55;100.00;101838.69;4966529;28;10827;-69
2023/12/19 07:11:01;;;;;;;;;28.25;28.25;;;;;8.58;100.00;101836.50;4955813;28;11030;-71
2023/12/19 07:14:10;;;;;;;;;25.50;24.50;;;;;8.62;100.00;101831.66;4949359;28;11013;-71
2023/12/19 07:17:19;;;;;;;;;25.50;25.00;;;;;8.67;100.00;101832.06;4961196;28;10993;-71
2023/12/19 07:20:29;;;;;;;;;23.00;20.75;;;;;8.65;100.00;101829.50;4954694;28;10913;-71
2023/12/19 07:23:38;;;;;;;;;23.25;19.25;;;;;8.62;100.00;101829.81;4961261;28;10724;-70
2023/12/19 07:26:48;;;;;;;;;18.50;18.50;;;;;8.69;100.00;101835.41;4960170;28;10891;-71
2023/12/19 07:29:57;;;;;;;;;21.25;20.00;;;;;8.85;100.00;101823.94;4935578;29;11453;-72
2023/12/19 07:33:00;;;;;;;;;21.25;18.50;;;;;8.86;100.00;101820.25;4935239;29;11009;-70
2023/12/19 07:36:11;;;;;;;;;31.75;26.00;;;;;8.82;100.00;101829.63;4934916;29;10757;-70
2023/12/19 07:39:20;;;;;;;;;27.25;25.00;;;;;8.81;100.00;101831.47;4936009;28;10948;-68
2023/12/19 07:42:30;;;;;;;;;29.75;24.75;;;;;8.81;100.00;101831.47;4953313;28;11005;-71
2023/12/19 07:45:39;;;;;;;;;31.75;29.75;;;;;8.78;100.00;101836.28;4936262;29;11003;-69
2023/12/19 07:48:48;;;;;;;;;27.50;25.50;;;;;8.77;100.00;101827.41;4935407;29;11228;-68
2023/12/19 07:51:58;;;;;;;;;31.50;30.25;;;;;8.79;100.00;101824.56;4935010;29;10932;-71
2023/12/19 07:55:10;;;;;;;;;27.75;25.75;;;;;8.76;100.00;101820.38;5708461;23;11107;-69
2023/12/19 07:58:20;;;;;;;;;34.00;27.25;;;;;8.77;100.00;101823.88;4927206;29;11044;-66
2023/12/19 08:01:29;;;;;;;;;41.50;26.25;;;;;8.73;100.00;101826.03;4932156;29;11094;-66
2023/12/19 08:04:38;;;;;;;;;30.00;28.00;;;;;8.78;100.00;101823.72;4930747;29;11044;-69
2023/12/19 08:07:48;;;;;;;;;27.00;25.00;;;;;8.82;100.00;101811.66;4931185;29;11045;-68
2023/12/19 08:10:53;;;;;;;;;32.50;27.25;;;;;8.83;100.00;101812.50;4932490;29;10866;-70
2023/12/19 08:14:03;;;;;;;;;30.25;27.50;;;;;8.83;100.00;101799.94;4932466;29;11096;-66
2023/12/19 08:17:13;;;;;;;;;31.25;30.00;;;;;8.81;100.00;101801.94;4932362;29;11171;-67
2023/12/19 08:20:18;;;;;;;;;33.50;29.50;;;;;8.76;100.00;101798.88;4932516;29;11083;-67
2023/12/19 08:23:20;;;;;;;;;32.00;30.00;;;;;8.78;100.00;101783.44;4932516;29;11059;-68
2023/12/19 08:26:24;;;;;;;;;27.00;23.50;;;;;8.81;100.00;101791.19;4932368;29;11185;-67
2023/12/19 08:29:33;;;;;;;;;31.25;28.50;;;;;8.81;100.00;101790.34;4932070;29;11110;-69
2023/12/19 08:32:38;;;;;;;;;30.50;29.00;;;;;8.77;100.00;101795.19;4932645;29;11093;-69
2023/12/19 08:35:47;;;;;;;;;32.00;32.00;;;;;8.73;100.00;101798.34;4932124;29;11027;-69
2023/12/19 08:38:50;;;;;;;;;26.25;23.50;;;;;8.74;100.00;101795.50;4932069;29;11107;-66
2023/12/19 08:41:53;;;;;;;;;32.50;32.50;;;;;8.66;100.00;101787.41;4931098;29;11087;-68
2023/12/19 08:45:02;;;;;;;;;33.50;30.00;;;;;8.70;100.00;101778.03;4931618;29;11029;-64
2023/12/19 08:48:08;;;;;;;;;30.50;26.75;;;;;8.73;100.00;101783.09;4932247;29;11105;-68
2023/12/19 08:50:53;;;;;;;;;29.50;26.50;;;;;8.67;100.00;101781.06;4933915;29;11111;-70
2023/12/19 08:53:19;;;;;;;;;34.50;31.00;;;;;8.63;100.00;101790.44;4933953;29;11196;-68
2023/12/19 08:55:47;;;;;;;;;34.50;29.00;;;;;8.63;100.00;101783.22;4933434;29;11115;-69
2023/12/19 08:58:13;;;;;;;;;29.75;26.75;;;;;8.67;100.00;101781.06;4916717;29;11865;-70
2023/12/19 09:00:40;;;;;;;;;35.00;32.00;;;;;8.66;100.00;101779.34;4933550;29;11284;-68
2023/12/19 09:03:07;;;;;;;;;31.25;28.00;;;;;8.65;100.00;101770.47;4933659;29;11108;-65
2023/12/19 09:05:33;;;;;;;;;29.75;25.25;;;;;8.69;100.00;101775.53;4932067;29;11095;-67
2023/12/19 09:08:00;;;;;;;;;34.50;31.25;;;;;8.68;100.00;101779.22;4933703;29;11071;-68
2023/12/19 09:10:27;;;;;;;;;31.50;29.25;;;;;8.70;100.00;101786.09;4933508;29;11041;-67
2023/12/19 09:12:54;;;;;;;;;28.50;27.75;;;;;8.66;100.00;101779.34;4933770;29;10957;-68
2023/12/19 09:15:21;;;;;;;;;25.50;25.00;;;;;8.71;100.00;101771.69;4933090;29;11049;-69
2023/12/19 09:17:47;;;;;;;;;28.25;25.25;;;;;8.71;100.00;101771.69;4933792;29;11153;-67
2023/12/19 09:20:15;;;;;;;;;27.00;26.00;;;;;8.74;100.00;101774.03;4933431;29;11036;-68
2023/12/19 09:22:41;;;;;;;;;31.75;29.25;;;;;8.78;100.00;101774.56;4933170;29;11146;-66
2023/12/19 09:25:14;;;;;;;;;29.25;27.00;;;;;8.76;100.00;101765.84;4933056;29;11155;-68
2023/12/19 09:27:43;;;;;;;;;26.50;24.25;;;;;8.81;100.00;101761.66;4916339;29;11128;-68
2023/12/19 09:30:10;;;;;;;;;28.50;24.75;;;;;8.82;100.00;101762.50;4916053;29;11180;-66
2023/12/19 09:32:40;;;;;;;;;28.50;23.50;;;;;8.83;100.00;101762.34;4933330;29;11113;-68
2023/12/19 09:35:10;;;;;;;;;19.75;19.25;;;;;8.84;100.00;101760.50;4932832;29;10976;-67
2023/12/19 09:37:38;;;;;;;;;17.25;16.75;;;;;8.86;100.00;101750.44;4932113;29;10953;-71
2023/12/19 09:40:19;;;;;;;;;22.25;20.00;;;;;8.88;100.00;101743.91;4933057;29;10728;-67
2023/12/19 09:42:46;;;;;;;;;20.75;18.75;;;;;8.89;100.00;101756.31;4916186;29;10720;-65
2023/12/19 09:45:14;;;;;;;;;26.25;17.00;;;;;8.86;100.00;101766.53;4932582;29;10796;-67
2023/12/19 09:47:52;;;;;;;;;19.75;19.25;;;;;8.87;100.00;101752.09;4933419;29;10729;-70
2023/12/19 09:50:20;;;;;;;;;21.25;21.00;;;;;8.90;100.00;101747.25;4932787;29;10714;-69
2023/12/19 09:52:48;;;;;;;;;20.50;15.50;;;;;8.94;100.00;101747.78;4915942;29;10714;-69
2023/12/19 09:55:15;;;;;;;;;23.50;20.00;;;;;8.95;100.00;101751.31;4915896;29;10835;-69
2023/12/19 09:57:44;;;;;;;;;23.75;21.00;;;;;8.95;100.00;101741.41;4933118;29;11615;-67
2023/12/19 10:00:11;;;;;;;;;19.75;17.00;;;;;8.96;100.00;101734.22;4932805;29;10705;-70
2023/12/19 10:02:38;;;;;;;;;19.00;19.00;;;;;8.95;100.00;101736.03;4933116;29;10688;-70
2023/12/19 10:05:05;;;;;;;;;20.50;19.00;;;;;8.97;100.00;101744.78;4932651;29;10852;-67
2023/12/19 10:07:32;;;;;;;;;18.25;16.75;;;;;8.97;100.00;101739.41;4913938;29;10783;-69
2023/12/19 10:10:02;;;;;;;;;14.75;14.75;;;;;9.02;100.00;101733.56;4897659;29;10822;-69
2023/12/19 10:12:30;;;;;;;;;22.00;16.75;;;;;9.02;100.00;101737.06;4932574;29;10833;-69
2023/12/19 10:15:13;;;;;;;;;18.50;18.50;;;;;9.04;100.00;101721.66;4932480;29;10777;-66
2023/12/19 10:18:10;;;;;;;;;18.00;17.75;;;;;9.07;100.00;101724.00;4913922;29;10762;-69
2023/12/19 10:20:38;;;;;;;;;19.50;18.75;;;;;9.04;100.00;101705.53;4917868;29;11486;-70
2023/12/19 10:23:05;;;;;;;;;14.25;12.75;;;;;9.11;100.00;101694.97;4932819;29;10785;-70
2023/12/19 10:25:34;;;;;;;;;17.25;16.50;;;;;9.15;100.00;101691.81;4932379;29;10614;-68
2023/12/19 10:28:12;;;;;;;;;14.50;13.75;;;;;9.12;100.00;101692.13;4932736;29;10616;-69
2023/12/19 10:30:39;;;;;;;;;16.25;16.25;;;;;9.09;100.00;101692.44;4932654;29;10760;-68
2023/12/19 10:33:07;;;;;;;;;15.75;12.00;;;;;9.14;100.00;101692.78;4934941;29;10587;-70
2023/12/19 10:35:42;;;;;;;;;15.25;15.25;;;;;9.06;100.00;101686.56;4919204;29;10634;-69
2023/12/19 10:38:09;;;;;;;;;16.00;15.50;;;;;9.14;100.00;101691.97;4936372;29;10625;-70
2023/12/19 10:40:37;;;;;;;;;17.00;17.00;;;;;9.18;100.00;101679.88;4936497;29;11429;-68
2023/12/19 10:43:04;;;;;;;;;12.50;11.25;;;;;9.19;100.00;101676.19;4936414;29;10575;-67
2023/12/19 10:45:32;;;;;;;;;14.25;13.75;;;;;9.21;100.00;101668.81;4918960;29;10689;-69
2023/12/19 10:47:59;;;;;;;;;17.25;16.00;;;;;9.19;100.00;101669.97;4936361;29;10702;-70
2023/12/19 10:50:27;;;;;;;;;15.00;13.25;;;;;9.18;100.00;101661.06;4935967;29;10877;-68
2023/12/19 10:53:00;;;;;;;;;16.00;14.50;;;;;9.22;100.00;101664.28;4936261;29;10775;-69
2023/12/19 10:55:36;;;;;;;;;14.50;12.50;;;;;9.24;100.00;101664.97;4935918;29;10595;-69
2023/12/19 10:58:04;;;;;;;;;16.25;15.50;;;;;9.25;100.00;101654.03;4919245;29;10525;-69
2023/12/19 11:00:34;;;;;;;;;16.75;15.00;;;;;9.26;100.00;101661.09;4936289;29;10693;-69
2023/12/19 11:03:23;;;;;;;;;15.75;15.75;;;;;9.28;100.00;101661.78;4919097;29;10612;-70
2023/12/19 11:05:54;;;;;;;;;13.00;13.00;;;;;9.27;100.00;101660.06;4918669;29;10727;-70
2023/12/19 11:08:22;;;;;;;;;12.00;12.00;;;;;9.26;100.00;101650.34;4935991;29;10825;-68
2023/12/19 11:11:11;;;;;;;;;12.25;10.75;;;;;9.31;100.00;101649.84;4935892;29;10606;-68
2023/12/19 11:13:41;;;;;;;;;19.00;14.75;;;;;9.29;100.00;101651.88;4935916;29;10531;-69
2023/12/19 11:16:16;;;;;;;;;11.75;11.75;;;;;9.33;100.00;101648.69;4935256;29;11334;-69
2023/12/19 11:18:57;;;;;;;;;14.50;11.00;;;;;9.36;100.00;101642.16;4916935;29;10502;-69
2023/12/19 11:21:37;;;;;;;;;11.50;11.50;;;;;9.38;100.00;101640.97;4885892;29;10596;-69
2023/12/19 11:24:07;;;;;;;;;11.25;10.25;;;;;9.38;100.00;101637.44;4935414;29;10700;-69
2023/12/19 11:26:41;;;;;;;;;10.00;9.75;;;;;9.42;100.00;101638.78;4934123;29;10636;-69
2023/12/19 11:29:07;;;;;;;;;7.50;5.25;;;;;9.46;100.00;101633.91;4918688;29;10427;-69
2023/12/19 11:31:35;;;;;;;;;12.50;7.75;;;;;9.44;100.00;101630.53;4918162;29;10444;-69
2023/12/19 11:34:22;;;;;;;;;8.50;7.50;;;;;9.44;100.00;101627.84;4935402;29;10717;-69
2023/12/19 11:37:03;;;;;;;;;10.25;9.25;;;;;9.46;100.00;101620.47;4935353;29;10347;-69
2023/12/19 11:39:31;;;;;;;;;10.00;9.00;;;;;9.47;100.00;101611.41;4935582;29;10437;-69
2023/12/19 11:41:57;;;;;;;;;6.00;6.00;;;;;9.48;100.00;101615.75;4935510;29;10434;-69
2023/12/19 11:44:34;;;;;;;;;7.25;6.00;;;;;9.48;100.00;101611.25;4934290;29;11186;-68